Time;durP1;ratioP1;P1;durP2;ratioP2;P2;SDS_P1;SDS_P2;PMS_P1;PMS_P2;Temp;Humidity;BMP_temperature;BMP_pressure;BME280_temperature;BME280_humidity;BME280_pressure;Samples;Min_cycle;Max_cycle;Signal;HPM_P1;HPM_P2
2023/06/11 04:22:32;;;;;;;3.65;3.15;;;;;;;18.26;90.17;100068.22;5089514;28;20328;-68
2023/06/11 04:24:58;;;;;;;3.30;2.42;;;;;;;18.27;90.13;100068.00;5088118;28;20455;-68
2023/06/11 04:27:24;;;;;;;3.33;2.90;;;;;;;18.33;89.57;100069.78;5088045;28;20040;-68
2023/06/11 04:29:52;;;;;;;3.78;2.47;;;;;;;18.41;88.66;100061.38;5087814;28;20036;-68
2023/06/11 04:32:20;;;;;;;3.80;2.97;;;;;;;18.45;88.36;100072.50;5089440;28;20123;-68
2023/06/11 04:34:48;;;;;;;4.03;2.90;;;;;;;18.44;88.32;100076.25;5088051;28;20036;-68
2023/06/11 04:37:16;;;;;;;4.13;3.00;;;;;;;18.50;87.90;100072.66;5087904;28;20066;-68
2023/06/11 04:39:41;;;;;;;4.10;2.90;;;;;;;18.58;87.57;100079.59;5087520;28;20032;-69
2023/06/11 04:42:07;;;;;;;3.50;2.70;;;;;;;18.58;87.91;100083.13;5087882;28;20037;-69
2023/06/11 04:44:33;;;;;;;3.05;2.72;;;;;;;18.61;87.68;100082.66;5087919;28;20062;-68
2023/06/11 04:46:59;;;;;;;3.30;2.80;;;;;;;18.57;88.06;100075.25;5087808;28;20044;-69
2023/06/11 04:49:28;;;;;;;3.20;2.67;;;;;;;18.65;87.35;100078.47;5087394;28;20039;-68
2023/06/11 04:51:57;;;;;;;3.00;2.70;;;;;;;18.77;86.80;100075.81;5087720;28;20055;-68
2023/06/11 04:54:23;;;;;;;4.15;2.65;;;;;;;18.74;87.37;100070.88;5087677;28;20043;-67
2023/06/11 04:56:49;;;;;;;3.40;2.63;;;;;;;18.81;87.22;100081.56;5087499;28;20033;-68
2023/06/11 04:59:16;;;;;;;3.35;2.47;;;;;;;18.91;86.73;100077.25;5087291;28;20025;-68
2023/06/11 05:01:46;;;;;;;3.58;2.47;;;;;;;18.98;85.90;100067.19;5087456;28;20439;-68
2023/06/11 05:04:14;;;;;;;3.25;2.72;;;;;;;19.07;85.27;100069.53;5087524;28;20097;-68
2023/06/11 05:06:45;;;;;;;2.53;2.33;;;;;;;19.08;85.17;100063.91;5088672;28;20028;-68
2023/06/11 05:09:15;;;;;;;3.60;2.80;;;;;;;19.20;84.75;100067.44;5086993;28;20041;-68
2023/06/11 05:11:44;;;;;;;5.13;2.78;;;;;;;19.33;83.83;100070.97;5087639;28;20384;-68
2023/06/11 05:14:14;;;;;;;4.30;3.03;;;;;;;19.32;83.70;100072.84;5087284;28;20086;-68
2023/06/11 05:16:40;;;;;;;;;;;;;;;19.45;83.10;100077.19;5087566;28;20065;-69
2023/06/11 05:19:06;;;;;;;2.58;2.17;;;;;;;19.50;82.55;100080.00;5086906;28;19913;-68
2023/06/11 05:21:33;;;;;;;3.33;2.40;;;;;;;19.62;81.96;100086.22;5086986;28;20035;-69
2023/06/11 05:24:06;;;;;;;2.65;2.20;;;;;;;19.66;81.70;100078.50;5086972;28;20036;-69
2023/06/11 05:26:35;;;;;;;4.25;2.67;;;;;;;19.70;81.58;100085.06;5086999;28;20037;-69
2023/06/11 05:29:03;;;;;;;2.97;2.47;;;;;;;19.81;80.64;100080.69;5086632;28;20520;-69
2023/06/11 05:31:29;;;;;;;4.45;2.90;;;;;;;19.85;80.61;100090.78;5086946;28;20033;-69
2023/06/11 05:33:55;;;;;;;3.03;2.38;;;;;;;19.88;81.02;100087.59;5073341;28;20044;-69
2023/06/11 05:36:22;;;;;;;2.80;2.47;;;;;;;19.97;80.43;100085.38;5073373;28;20043;-68
2023/06/11 05:38:47;;;;;;;3.22;2.72;;;;;;;20.01;80.48;100097.34;5073021;28;20040;-69
2023/06/11 05:41:13;;;;;;;5.03;3.65;;;;;;;20.11;80.21;100094.03;5073186;28;20043;-69
2023/06/11 05:43:39;;;;;;;4.05;3.28;;;;;;;20.08;79.98;100095.31;5073291;28;20039;-69
2023/06/11 05:46:06;;;;;;;3.00;2.53;;;;;;;20.26;79.30;100095.16;5073508;28;20420;-68
2023/06/11 05:48:32;;;;;;;2.95;2.65;;;;;;;20.38;78.33;100091.59;5072976;28;20036;-69
2023/06/11 05:50:57;;;;;;;3.08;2.47;;;;;;;20.36;78.15;100105.38;5074423;28;20039;-69
2023/06/11 05:53:24;;;;;;;3.22;2.70;;;;;;;20.50;78.07;100101.34;5073189;28;20033;-69
2023/06/11 05:55:49;;;;;;;2.92;2.55;;;;;;;20.55;77.83;100106.03;5072974;28;20039;-68
2023/06/11 05:58:16;;;;;;;3.70;2.87;;;;;;;20.70;77.48;100106.31;5072726;28;20397;-59
2023/06/11 06:00:42;;;;;;;3.88;3.28;;;;;;;20.66;77.62;100104.31;5072930;28;20109;-59
2023/06/11 06:03:08;;;;;;;3.63;3.13;;;;;;;20.61;78.08;100110.47;5072886;28;20037;-59
2023/06/11 06:05:34;;;;;;;3.33;2.85;;;;;;;20.59;77.75;100107.16;5072401;28;20051;-56
2023/06/11 06:08:00;;;;;;;3.75;2.83;;;;;;;20.63;77.79;100104.81;5067061;28;20041;-58
2023/06/11 06:10:26;;;;;;;2.88;2.50;;;;;;;20.79;76.89;100102.13;5071911;28;20037;-58
2023/06/11 06:12:51;;;;;;;3.67;3.03;;;;;;;20.82;76.73;100103.53;5072723;28;20039;-58
2023/06/11 06:15:17;;;;;;;2.90;2.58;;;;;;;20.77;77.18;100100.72;5072729;28;20040;-59
2023/06/11 06:17:42;;;;;;;3.65;2.83;;;;;;;20.90;76.70;100115.84;5072648;28;20409;-53
2023/06/11 06:20:11;;;;;;;3.00;2.63;;;;;;;20.90;76.32;100113.16;5072036;28;20056;-52
2023/06/11 06:22:41;;;;;;;3.00;2.50;;;;;;;20.98;76.68;100118.16;5072501;28;20035;-57
2023/06/11 06:25:07;;;;;;;3.25;2.80;;;;;;;21.07;76.43;100122.13;5072512;28;20412;-54
2023/06/11 06:27:34;;;;;;;3.80;2.80;;;;;;;21.15;76.65;100127.13;5072488;28;20044;-52
2023/06/11 06:30:01;;;;;;;4.95;3.80;;;;;;;21.15;75.82;100124.41;5072094;28;20048;-56
2023/06/11 06:32:29;;;;;;;5.10;3.70;;;;;;;21.20;75.53;100120.97;5072195;28;20493;-56
2023/06/11 06:34:55;;;;;;;4.95;2.95;;;;;;;21.26;74.55;100128.94;5072329;28;20048;-56
2023/06/11 06:37:22;;;;;;;3.92;2.92;;;;;;;21.34;74.99;100128.56;5072043;28;20047;-53
2023/06/11 06:39:48;;;;;;;4.10;3.00;;;;;;;21.44;74.74;100127.06;5071982;28;20055;-52
2023/06/11 06:42:13;;;;;;;3.58;2.70;;;;;;;21.55;73.96;100118.84;5072090;28;20071;-52
2023/06/11 06:44:45;;;;;;;3.90;3.13;;;;;;;21.59;73.04;100124.59;5071066;28;20131;-56
2023/06/11 06:47:14;;;;;;;3.47;2.58;;;;;;;21.71;72.97;100119.88;5071942;28;20063;-53
2023/06/11 06:49:39;;;;;;;3.55;2.85;;;;;;;21.63;73.39;100120.31;5071727;28;20569;-55
2023/06/11 06:52:06;;;;;;;3.17;2.83;;;;;;;21.75;73.48;100121.03;5071844;28;20135;-56
2023/06/11 06:54:31;;;;;;;3.17;2.70;;;;;;;21.79;72.61;100124.06;5072008;28;20036;-55
2023/06/11 06:56:57;;;;;;;3.17;2.50;;;;;;;21.77;73.16;100120.75;5073086;28;20032;-57
2023/06/11 06:59:23;;;;;;;3.10;2.63;;;;;;;21.88;73.13;100120.66;5071472;28;20036;-55
2023/06/11 07:01:49;;;;;;;3.92;2.78;;;;;;;21.99;71.78;100123.53;5069333;28;20128;-55
2023/06/11 07:04:15;;;;;;;2.90;2.50;;;;;;;22.08;71.89;100122.00;5071602;28;20041;-52
2023/06/11 07:06:42;;;;;;;3.00;2.70;;;;;;;22.24;71.32;100123.88;5071333;28;20036;-54
2023/06/11 07:09:08;;;;;;;3.63;2.85;;;;;;;22.25;70.22;100132.84;5079659;28;20028;-54
2023/06/11 07:11:34;;;;;;;3.67;2.85;;;;;;;22.27;71.37;100119.81;5076980;28;20424;-55
2023/06/11 07:14:00;;;;;;;3.33;3.00;;;;;;;22.39;70.35;100123.22;5071460;28;20119;-54
2023/06/11 07:16:25;;;;;;;3.17;2.83;;;;;;;22.42;70.28;100123.53;5072712;28;20067;-58
2023/06/11 07:18:55;;;;;;;3.33;2.72;;;;;;;22.59;68.94;100122.63;5071007;28;20037;-58
2023/06/11 07:21:23;;;;;;;3.03;2.40;;;;;;;22.63;68.47;100123.78;5071190;28;20043;-55
2023/06/11 07:23:49;;;;;;;3.65;3.03;;;;;;;22.73;69.52;100121.16;5071441;28;20101;-55
2023/06/11 07:26:15;;;;;;;3.53;2.88;;;;;;;22.79;69.91;100127.44;5071268;28;20123;-58
2023/06/11 07:28:42;;;;;;;2.90;2.47;;;;;;;22.87;68.02;100130.53;5071049;28;20493;-61
2023/06/11 07:31:08;;;;;;;3.42;2.53;;;;;;;22.82;67.19;100127.78;5071115;28;20094;-60
2023/06/11 07:33:34;;;;;;;2.67;2.30;;;;;;;23.02;66.66;100138.84;5071242;28;20033;-61
2023/06/11 07:36:00;;;;;;;2.80;2.50;;;;;;;23.09;66.49;100132.38;5072234;28;20443;-64
2023/06/11 07:38:26;;;;;;;4.00;2.70;;;;;;;23.36;65.24;100133.16;5070905;28;20040;-64
2023/06/11 07:40:52;;;;;;;3.90;3.10;;;;;;;23.35;64.90;100139.69;5072318;28;20035;-65
2023/06/11 07:43:19;;;;;;;2.90;2.60;;;;;;;23.45;64.11;100142.44;5071097;28;20028;-65
2023/06/11 07:45:44;;;;;;;4.05;2.40;;;;;;;23.56;64.13;100133.28;5072358;28;20052;-65
2023/06/11 07:48:10;;;;;;;3.53;2.92;;;;;;;23.67;64.08;100133.38;5072297;28;20044;-63
2023/06/11 07:50:37;;;;;;;3.30;3.00;;;;;;;23.81;63.10;100132.69;5071791;28;20461;-61
2023/06/11 07:53:03;;;;;;;3.92;2.50;;;;;;;23.90;63.25;100130.25;5071822;28;20545;-62
2023/06/11 07:55:29;;;;;;;3.30;2.80;;;;;;;23.85;62.36;100138.38;5070013;28;20047;-63
2023/06/11 07:57:55;;;;;;;3.13;2.83;;;;;;;24.05;61.07;100138.50;5071288;28;20428;-63
2023/06/11 08:00:21;;;;;;;3.83;2.78;;;;;;;24.07;61.38;100130.09;5071713;28;20036;-63
2023/06/11 08:02:47;;;;;;;3.20;2.90;;;;;;;24.26;60.16;100139.44;5072089;28;20081;-63
2023/06/11 08:05:17;;;;;;;3.00;2.70;;;;;;;24.33;60.33;100131.00;5071717;28;20445;-63
2023/06/11 08:07:54;;;;;;;3.35;2.50;;;;;;;24.57;59.46;100132.19;5069882;28;20040;-63
2023/06/11 08:10:20;;;;;;;3.25;2.55;;;;;;;24.54;58.59;100130.00;5071777;28;20048;-65
2023/06/11 08:12:45;;;;;;;2.70;2.50;;;;;;;24.59;58.68;100129.22;5072101;28;20043;-64
2023/06/11 08:15:11;;;;;;;3.22;2.85;;;;;;;24.57;58.44;100129.47;5071811;28;20501;-64
2023/06/11 08:17:36;;;;;;;2.92;2.50;;;;;;;24.76;58.27;100123.53;5071701;28;20048;-63
2023/06/11 08:20:06;;;;;;;4.63;2.83;;;;;;;24.78;58.09;100121.38;5071498;28;20044;-64
2023/06/11 08:22:31;;;;;;;3.67;2.95;;;;;;;24.89;58.40;100112.09;5071870;28;20158;-64
2023/06/11 08:24:56;;;;;;;3.53;2.80;;;;;;;25.06;58.30;100115.41;5071754;28;20127;-64
2023/06/11 08:27:22;;;;;;;3.30;2.85;;;;;;;25.09;56.60;100120.31;5071847;28;20127;-64
2023/06/11 08:29:47;;;;;;;3.38;2.50;;;;;;;25.09;56.17;100122.22;5071536;28;20067;-64
2023/06/11 08:32:13;;;;;;;3.00;2.70;;;;;;;25.44;55.08;100129.59;5071660;28;20386;-64
2023/06/11 08:34:38;;;;;;;2.55;2.35;;;;;;;25.37;54.49;100118.16;5071852;28;20029;-64
2023/06/11 08:37:04;;;;;;;2.97;2.42;;;;;;;25.70;53.49;100128.47;5071682;28;20561;-63
2023/06/11 08:39:29;;;;;;;3.05;2.75;;;;;;;25.41;53.33;100119.22;5070284;28;20043;-63
2023/06/11 08:41:54;;;;;;;4.00;2.60;;;;;;;25.50;52.83;100123.03;5071622;28;20111;-63
2023/06/11 08:44:21;;;;;;;3.42;2.70;;;;;;;25.75;52.11;100118.63;5071479;28;20036;-62
2023/06/11 08:46:48;;;;;;;3.08;2.75;;;;;;;25.42;52.00;100118.13;5071464;28;20036;-63
2023/06/11 08:49:23;;;;;;;4.35;2.70;;;;;;;25.51;51.60;100124.66;5071181;28;20060;-63
2023/06/11 08:51:49;;;;;;;3.67;2.90;;;;;;;25.62;50.97;100096.28;5071537;28;20040;-64
2023/06/11 08:54:16;;;;;;;3.22;2.50;;;;;;;25.87;50.65;100130.06;5071499;28;20044;-63
2023/06/11 08:56:43;;;;;;;2.92;2.63;;;;;;;26.01;49.11;100116.66;5071442;28;20033;-63
2023/06/11 08:59:08;;;;;;;4.50;2.67;;;;;;;26.17;48.41;100120.97;5071162;28;20045;-63
2023/06/11 09:01:34;;;;;;;2.85;2.60;;;;;;;26.18;48.37;100117.94;5071389;28;20114;-62
2023/06/11 09:04:00;;;;;;;3.10;2.63;;;;;;;26.34;48.87;100115.16;5071405;28;20033;-63
2023/06/11 09:06:26;;;;;;;2.90;2.60;;;;;;;26.34;49.41;100115.16;5071362;28;20064;-63
2023/06/11 09:08:57;;;;;;;3.03;2.63;;;;;;;26.58;46.71;100112.59;5074073;28;20115;-63
2023/06/11 09:11:23;;;;;;;3.10;2.80;;;;;;;26.71;46.13;100118.25;5075000;28;20108;-63
2023/06/11 09:13:48;;;;;;;5.13;3.78;;;;;;;26.63;47.40;100112.56;5075142;28;20041;-63
2023/06/11 09:16:13;;;;;;;4.47;3.83;;;;;;;26.81;46.87;100113.84;5074936;28;20044;-63
2023/06/11 09:18:42;;;;;;;3.47;2.83;;;;;;;27.07;46.15;100114.50;5074728;28;20028;-64
2023/06/11 09:21:11;;;;;;;3.33;3.00;;;;;;;27.24;44.84;100121.16;5074783;28;20374;-64
2023/06/11 09:23:38;;;;;;;3.72;3.08;;;;;;;27.41;43.62;100117.19;5074893;28;20067;-64
2023/06/11 09:26:04;;;;;;;4.07;3.00;;;;;;;27.46;43.89;100112.50;5074774;28;20086;-62
2023/06/11 09:28:37;;;;;;;3.60;3.00;;;;;;;27.60;42.80;100115.34;5074466;28;20040;-63
2023/06/11 09:31:04;;;;;;;3.35;2.75;;;;;;;27.70;42.63;100112.53;5074812;28;20508;-64
2023/06/11 09:33:31;;;;;;;;;;;;;;;27.66;42.34;100108.72;5075105;28;20044;-64
2023/06/11 09:35:57;;;;;;;2.40;2.20;;;;;;;27.91;41.85;100110.41;5074610;28;19912;-64
2023/06/11 09:38:23;;;;;;;2.97;2.50;;;;;;;27.90;41.53;100103.28;5074325;28;20040;-63
2023/06/11 09:40:51;;;;;;;3.03;2.72;;;;;;;27.90;41.47;100124.34;5074498;28;20332;-63
2023/06/11 09:43:26;;;;;;;2.92;2.60;;;;;;;28.16;39.88;100116.66;5074611;28;20116;-62
2023/06/11 09:45:54;;;;;;;2.58;2.38;;;;;;;28.04;41.88;100115.19;5074441;28;20603;-63
2023/06/11 09:48:24;;;;;;;2.67;2.47;;;;;;;28.17;39.15;100104.59;5074198;28;20094;-63
2023/06/11 09:50:52;;;;;;;4.78;2.40;;;;;;;28.18;39.14;100114.47;5074362;28;20511;-63
2023/06/11 09:53:19;;;;;;;3.15;2.30;;;;;;;28.66;37.55;100120.66;5074438;28;20412;-65
2023/06/11 09:55:50;;;;;;;;;;;;;;;28.80;37.73;100116.06;5074686;28;20040;-62
2023/06/11 09:58:21;;;;;;;2.80;2.30;;;;;;;28.86;36.32;100116.81;5074026;28;19940;-65
2023/06/11 10:00:49;;;;;;;4.53;2.65;;;;;;;29.03;35.74;100114.38;5073124;28;20043;-64
2023/06/11 10:03:14;;;;;;;3.65;2.60;;;;;;;29.00;36.72;100111.41;5074139;28;20049;-64
2023/06/11 10:05:40;;;;;;;3.78;2.60;;;;;;;29.01;37.75;100115.78;5074121;28;20045;-64
2023/06/11 10:08:18;;;;;;;2.88;2.50;;;;;;;29.10;37.26;100112.06;5074072;28;20043;-64
2023/06/11 10:10:53;;;;;;;3.20;2.60;;;;;;;29.32;36.54;100111.41;5073968;28;20136;-63
2023/06/11 10:13:30;;;;;;;2.60;2.35;;;;;;;29.65;35.31;100114.16;5074225;28;20382;-63
2023/06/11 10:16:00;;;;;;;2.75;2.42;;;;;;;29.78;35.32;100105.09;5073885;28;20037;-63
2023/06/11 10:18:27;;;;;;;2.45;2.25;;;;;;;29.75;35.67;100113.16;5073429;28;20033;-64
2023/06/11 10:20:55;;;;;;;3.00;2.50;;;;;;;29.97;35.79;100111.31;5073853;28;20035;-63
2023/06/11 10:23:21;;;;;;;3.17;2.53;;;;;;;30.32;33.04;100098.00;5073870;28;20037;-63
2023/06/11 10:25:54;;;;;;;3.37;2.73;;;;;;;30.45;33.21;100105.41;5073737;28;20123;-64
2023/06/11 10:28:37;;;;;;;3.17;2.47;;;;;;;30.73;32.28;100099.84;5073533;28;20040;-64
2023/06/11 10:31:03;;;;;;;2.90;2.50;;;;;;;30.79;32.19;100110.41;5073602;28;20059;-63
2023/06/11 10:33:40;;;;;;;3.50;2.40;;;;;;;30.99;32.79;100108.28;5073692;28;20086;-64
2023/06/11 10:36:06;;;;;;;3.20;2.30;;;;;;;31.39;32.06;100108.41;5073647;28;20428;-63
2023/06/11 10:38:37;;;;;;;3.35;2.50;;;;;;;31.27;32.24;100107.06;5073153;28;20033;-63
2023/06/11 10:41:05;;;;;;;4.03;3.10;;;;;;;31.37;31.81;100094.97;5073550;28;20032;-63
2023/06/11 10:43:32;;;;;;;3.88;2.13;;;;;;;31.74;29.61;100109.38;5073426;28;20086;-63
2023/06/11 10:46:11;;;;;;;2.40;1.95;;;;;;;31.88;28.46;100101.84;5073229;28;20119;-63
2023/06/11 10:48:49;;;;;;;2.50;2.30;;;;;;;31.94;29.32;100097.81;5073162;28;20055;-63
2023/06/11 10:51:15;;;;;;;2.53;2.17;;;;;;;31.95;28.79;100093.97;5073298;28;20131;-64
2023/06/11 10:53:41;;;;;;;3.10;2.38;;;;;;;32.13;28.81;100097.56;5071983;28;20115;-64
2023/06/11 10:56:08;;;;;;;2.85;2.55;;;;;;;32.06;28.41;100087.00;5073171;28;20040;-63
2023/06/11 10:58:34;;;;;;;;;;;;;;;32.78;26.54;100095.88;5073294;28;20115;-62
2023/06/11 11:01:00;;;;;;;3.17;2.15;;;;;;;32.74;27.31;100094.91;5072952;28;19960;-64
2023/06/11 11:03:30;;;;;;;2.37;2.10;;;;;;;32.83;26.84;100104.78;5073083;28;20040;-64
2023/06/11 11:05:56;;;;;;;2.42;2.00;;;;;;;32.67;26.10;100096.19;5073060;28;20443;-64
2023/06/11 11:08:21;;;;;;;3.10;2.20;;;;;;;32.28;27.33;100096.31;5072578;28;20078;-64
2023/06/11 11:10:53;;;;;;;2.50;2.10;;;;;;;32.57;27.08;100092.94;5072755;28;20048;-64
2023/06/11 11:13:20;;;;;;;2.58;2.00;;;;;;;32.78;27.51;100085.63;5072788;28;20036;-64
2023/06/11 11:15:45;;;;;;;2.97;2.40;;;;;;;33.14;27.20;100087.25;5072700;28;20090;-64
2023/06/11 11:18:11;;;;;;;2.27;2.07;;;;;;;33.01;26.65;100086.31;5066084;28;20429;-64
2023/06/11 11:20:36;;;;;;;2.77;2.07;;;;;;;33.91;25.15;100088.19;5052377;28;20095;-64
2023/06/11 11:23:02;;;;;;;9.27;5.67;;;;;;;33.45;25.19;100095.31;5052625;28;20044;-64
2023/06/11 11:25:29;;;;;;;2.47;1.93;;;;;;;33.92;22.86;100087.03;5052736;28;20045;-64
2023/06/11 11:27:56;;;;;;;2.60;2.25;;;;;;;34.10;22.86;100096.81;5052706;28;20040;-64
2023/06/11 11:30:21;;;;;;;;;;;;;;;34.25;22.17;100085.19;5052211;28;20044;-64
2023/06/11 11:32:48;;;;;;;4.47;2.45;;;;;;;34.04;22.89;100081.59;5052582;28;20289;-64
2023/06/11 11:35:14;;;;;;;;;;;;;;;34.09;22.69;100078.63;5052991;28;20037;-64
2023/06/11 11:37:40;;;;;;;3.92;2.38;;;;;;;34.23;22.71;100057.09;5052463;28;19912;-64
2023/06/11 11:40:06;;;;;;;4.77;2.50;;;;;;;34.38;21.62;100068.69;5052190;28;20128;-64
2023/06/11 11:42:43;;;;;;;4.05;2.13;;;;;;;33.83;21.30;100059.41;5052419;28;20036;-63
2023/06/11 11:45:12;;;;;;;2.90;2.10;;;;;;;34.36;19.75;100071.78;5052452;28;20119;-63
2023/06/11 11:47:39;;;;;;;4.03;2.03;;;;;;;34.60;19.84;100073.91;5052204;28;20032;-63
2023/06/11 11:50:09;;;;;;;3.35;2.63;;;;;;;34.64;20.44;100066.56;5052401;28;20482;-63
2023/06/11 11:52:37;;;;;;;2.83;1.95;;;;;;;35.15;19.96;100070.00;5052169;28;20040;-63
2023/06/11 11:55:04;;;;;;;3.50;2.20;;;;;;;35.07;20.46;100057.84;5052457;28;20037;-63
2023/06/11 11:57:30;;;;;;;2.20;1.90;;;;;;;35.00;20.35;100054.81;5057324;28;20128;-62
2023/06/11 11:59:55;;;;;;;2.72;2.10;;;;;;;34.99;20.52;100053.22;5060606;28;20437;-63
2023/06/11 12:02:26;;;;;;;3.20;2.33;;;;;;;34.89;20.23;100056.41;5061824;28;20048;-63
2023/06/11 12:04:57;;;;;;;2.80;2.08;;;;;;;35.07;19.98;100054.28;5062574;28;20051;-63
2023/06/11 12:07:23;;;;;;;3.10;2.05;;;;;;;35.15;19.79;100056.16;5045357;28;20587;-62
2023/06/11 12:09:49;;;;;;;4.65;2.00;;;;;;;34.77;21.17;100056.34;5060660;28;20036;-63
2023/06/11 12:12:14;;;;;;;3.40;2.30;;;;;;;35.36;20.79;100056.06;5061471;28;20036;-63
2023/06/11 12:14:40;;;;;;;3.70;2.40;;;;;;;34.89;21.34;100045.34;5061361;28;20474;-63
2023/06/11 12:17:10;;;;;;;3.00;2.37;;;;;;;35.41;20.14;100044.78;5045325;28;20124;-63
2023/06/11 12:19:36;;;;;;;2.83;2.35;;;;;;;35.29;21.14;100040.03;5059579;28;20082;-63
2023/06/11 12:22:05;;;;;;;2.97;2.50;;;;;;;34.58;21.17;100034.72;5051733;28;20112;-62
2023/06/11 12:24:32;;;;;;;2.50;2.10;;;;;;;35.13;21.16;100016.13;5051836;28;20037;-63
2023/06/11 12:26:59;;;;;;;3.83;2.25;;;;;;;34.74;21.81;100027.41;5051616;28;20040;-63
2023/06/11 12:29:25;;;;;;;2.70;2.42;;;;;;;34.12;22.23;100017.19;5051463;28;20440;-63
2023/06/11 12:31:50;;;;;;;3.03;2.22;;;;;;;35.31;20.77;100023.88;5051643;28;20090;-62
2023/06/11 12:34:16;;;;;;;2.97;2.30;;;;;;;35.43;21.09;100022.31;5051720;28;20090;-63
2023/06/11 12:36:46;;;;;;;2.63;2.40;;;;;;;35.38;21.10;100028.03;5051595;28;20052;-62
2023/06/11 12:39:13;;;;;;;3.65;2.60;;;;;;;35.27;21.22;100020.16;5051549;28;20029;-63
2023/06/11 12:41:39;;;;;;;3.17;2.58;;;;;;;35.19;21.32;100009.22;5053046;28;20051;-63
2023/06/11 12:44:04;;;;;;;4.27;2.60;;;;;;;36.09;20.42;100013.75;5054966;28;20505;-63
2023/06/11 12:46:30;;;;;;;2.93;2.53;;;;;;;36.33;20.55;100012.88;5054285;28;20119;-63
2023/06/11 12:48:56;;;;;;;3.10;2.10;;;;;;;35.94;20.20;100006.97;5074232;28;20032;-62
2023/06/11 12:51:22;;;;;;;4.10;2.63;;;;;;;36.10;19.86;100010.59;5075555;28;20032;-63
2023/06/11 12:53:47;;;;;;;2.80;2.20;;;;;;;35.45;20.36;100006.97;5075561;28;20033;-62
2023/06/11 12:56:13;;;;;;;4.73;2.40;;;;;;;35.50;20.53;100012.28;5075441;28;20559;-63
2023/06/11 12:58:39;;;;;;;3.13;2.20;;;;;;;35.87;20.68;99999.22;5075130;28;20397;-65
2023/06/11 13:01:06;;;;;;;2.72;2.50;;;;;;;36.40;19.33;99991.72;5075431;28;20029;-64
2023/06/11 13:03:32;;;;;;;3.67;2.35;;;;;;;36.18;20.03;100005.28;5075079;28;20036;-64
2023/06/11 13:05:57;;;;;;;4.17;2.60;;;;;;;35.98;20.21;99993.19;5075315;28;20375;-64
2023/06/11 13:08:22;;;;;;;3.00;2.33;;;;;;;35.68;20.43;99999.00;5075152;28;20283;-64
2023/06/11 13:10:48;;;;;;;5.00;2.43;;;;;;;34.83;20.85;99991.38;5073905;28;20047;-64
2023/06/11 13:13:14;;;;;;;3.00;2.30;;;;;;;34.90;21.10;99988.84;5075213;28;20280;-63
2023/06/11 13:15:43;;;;;;;3.55;2.35;;;;;;;34.67;21.42;99980.13;5075101;28;20111;-64
2023/06/11 13:18:12;;;;;;;2.70;2.05;;;;;;;34.00;21.40;99979.22;5075055;28;20044;-63
2023/06/11 13:20:38;;;;;;;2.97;2.42;;;;;;;33.28;21.96;99976.69;5074635;28;20064;-63
2023/06/11 13:23:03;;;;;;;3.05;2.70;;;;;;;33.61;21.81;99983.19;5075046;28;20121;-63
2023/06/11 13:25:28;;;;;;;4.33;2.83;;;;;;;32.78;23.09;99974.53;5074850;28;20044;-64
2023/06/11 13:27:54;;;;;;;3.20;2.60;;;;;;;32.55;23.47;99974.75;5074937;28;20052;-64
2023/06/11 13:30:20;;;;;;;3.43;2.43;;;;;;;31.73;23.23;99970.94;5074600;28;20037;-63
2023/06/11 13:32:45;;;;;;;2.63;2.10;;;;;;;32.22;23.70;99966.16;5075047;28;20037;-63
2023/06/11 13:35:11;;;;;;;2.90;2.10;;;;;;;32.20;24.05;99967.59;5074864;28;20040;-62
2023/06/11 13:37:36;;;;;;;2.67;2.37;;;;;;;31.84;24.54;99963.22;5074767;28;20035;-63
2023/06/11 13:40:02;;;;;;;3.63;2.80;;;;;;;31.79;23.88;99963.34;5074565;28;20396;-63
2023/06/11 13:42:28;;;;;;;2.77;2.50;;;;;;;31.83;24.60;99967.09;5074721;28;20066;-63
2023/06/11 13:44:53;;;;;;;2.53;2.30;;;;;;;32.01;23.39;99965.97;5074722;28;20347;-63
2023/06/11 13:47:19;;;;;;;2.60;2.00;;;;;;;31.72;23.68;99963.00;5074587;28;20393;-63
2023/06/11 13:49:44;;;;;;;3.20;2.33;;;;;;;31.77;23.99;99946.31;5074327;28;20120;-63
2023/06/11 13:52:09;;;;;;;4.22;2.58;;;;;;;31.83;23.79;99956.09;5074532;28;20064;-63
2023/06/11 13:54:35;;;;;;;3.28;2.20;;;;;;;31.55;23.71;99950.78;5074017;28;20048;-63
2023/06/11 13:57:01;;;;;;;2.73;2.40;;;;;;;31.64;24.31;99956.34;5074390;28;20068;-63
2023/06/11 13:59:26;;;;;;;3.38;2.83;;;;;;;31.50;24.67;99942.72;5074104;28;20047;-63
2023/06/11 14:01:54;;;;;;;3.40;2.90;;;;;;;30.74;25.30;99947.53;5074368;28;20025;-63
2023/06/11 14:04:20;;;;;;;3.42;2.50;;;;;;;31.03;25.43;99955.28;5074218;28;20045;-64
2023/06/11 14:06:45;;;;;;;3.67;2.40;;;;;;;31.16;25.18;99937.06;5074142;28;20040;-63
2023/06/11 14:09:11;;;;;;;2.78;2.28;;;;;;;30.94;24.92;99940.69;5073979;28;20040;-64
2023/06/11 14:11:36;;;;;;;3.25;2.60;;;;;;;30.96;25.74;99944.72;5074068;28;20067;-64
2023/06/11 14:14:01;;;;;;;3.63;2.83;;;;;;;31.13;25.33;99933.00;5074130;28;20116;-64
2023/06/11 14:16:27;;;;;;;3.00;2.50;;;;;;;31.08;25.16;99936.69;5074305;28;20567;-64
2023/06/11 14:18:53;;;;;;;3.70;2.27;;;;;;;31.07;24.56;99931.53;5073809;28;20044;-64
2023/06/11 14:21:18;;;;;;;3.33;2.53;;;;;;;31.14;25.29;99922.81;5073933;28;20032;-64
2023/06/11 14:23:44;;;;;;;3.65;2.83;;;;;;;30.92;25.98;99931.94;5074032;28;20127;-64
2023/06/11 14:26:09;;;;;;;3.27;2.70;;;;;;;30.90;25.03;99920.44;5073759;28;20109;-64
2023/06/11 14:28:35;;;;;;;6.75;2.67;;;;;;;30.79;25.00;99917.97;5073677;28;20043;-63
2023/06/11 14:31:00;;;;;;;4.15;2.60;;;;;;;30.79;25.45;99917.16;5073928;28;20113;-64
2023/06/11 14:33:26;;;;;;;3.72;2.80;;;;;;;30.58;25.85;99916.03;5074064;28;20072;-64
2023/06/11 14:35:51;;;;;;;3.78;2.97;;;;;;;30.51;26.30;99920.03;5073686;28;20068;-64
2023/06/11 14:38:17;;;;;;;3.90;3.15;;;;;;;30.43;26.52;99919.97;5072206;28;20037;-64
2023/06/11 14:40:43;;;;;;;4.50;3.40;;;;;;;30.63;26.30;99918.66;5073520;28;20074;-64
2023/06/11 14:43:08;;;;;;;3.10;2.70;;;;;;;30.31;26.94;99906.81;5073521;28;20275;-64
2023/06/11 14:45:34;;;;;;;2.92;2.50;;;;;;;30.41;26.73;99914.00;5073457;28;20040;-64
2023/06/11 14:47:59;;;;;;;3.85;2.80;;;;;;;30.49;26.64;99913.25;5073307;28;20070;-64
2023/06/11 14:50:25;;;;;;;3.30;2.97;;;;;;;30.48;26.53;99917.94;5064418;28;20036;-64
2023/06/11 14:52:51;;;;;;;2.95;2.45;;;;;;;30.50;26.51;99904.69;5070266;28;20028;-64
2023/06/11 14:55:16;;;;;;;4.65;3.25;;;;;;;30.26;27.18;99904.22;5072035;28;20490;-63
2023/06/11 14:57:42;;;;;;;3.80;3.20;;;;;;;30.31;27.73;99900.50;5073198;28;20069;-63
2023/06/11 15:00:07;;;;;;;3.92;2.88;;;;;;;30.29;26.21;99897.28;5072853;28;20055;-64
2023/06/11 15:02:34;;;;;;;3.78;2.80;;;;;;;30.15;26.77;99881.66;5073146;28;20036;-63
2023/06/11 15:05:03;;;;;;;3.58;2.85;;;;;;;30.08;27.38;99888.69;5072323;28;20064;-64
2023/06/11 15:07:28;;;;;;;4.57;2.42;;;;;;;30.21;26.51;99887.84;5073088;28;20405;-64
2023/06/11 15:09:54;;;;;;;4.18;2.70;;;;;;;30.30;26.25;99888.72;5069647;28;20040;-64
2023/06/11 15:12:19;;;;;;;3.70;3.20;;;;;;;30.17;26.46;99895.91;5072102;28;20037;-64
2023/06/11 15:14:44;;;;;;;3.08;2.35;;;;;;;30.05;26.35;99892.84;5072890;28;20577;-64
2023/06/11 15:17:10;;;;;;;5.07;2.65;;;;;;;30.11;25.91;99890.84;5073176;28;20029;-63
2023/06/11 15:19:36;;;;;;;3.53;2.88;;;;;;;30.05;26.22;99886.56;5072503;28;20040;-65
2023/06/11 15:22:04;;;;;;;3.00;2.47;;;;;;;29.96;26.50;99890.06;5072654;28;20056;-64
2023/06/11 15:24:30;;;;;;;3.88;2.33;;;;;;;30.12;25.74;99892.44;5072771;28;20040;-64
2023/06/11 15:26:56;;;;;;;4.25;2.88;;;;;;;30.04;25.83;99882.19;5072493;28;20062;-64
2023/06/11 15:29:22;;;;;;;3.72;3.00;;;;;;;29.84;26.95;99876.06;5072401;28;20528;-64
2023/06/11 15:31:50;;;;;;;3.72;2.65;;;;;;;29.92;26.95;99878.06;5072513;28;20047;-64
2023/06/11 15:34:15;;;;;;;4.22;2.90;;;;;;;29.88;26.10;99890.00;5072506;28;20089;-64
2023/06/11 15:36:41;;;;;;;6.63;3.28;;;;;;;29.70;25.99;99884.34;5072340;28;20123;-65
2023/06/11 15:39:06;;;;;;;3.50;2.95;;;;;;;29.66;26.44;99883.31;5072153;28;20140;-66
2023/06/11 15:41:31;;;;;;;3.42;2.97;;;;;;;29.68;26.76;99883.03;5072568;28;20035;-66
2023/06/11 15:44:02;;;;;;;4.60;2.53;;;;;;;29.74;27.08;99879.06;5072541;28;20509;-64
2023/06/11 15:46:27;;;;;;;3.17;2.53;;;;;;;29.66;26.89;99877.03;5072227;28;20401;-63
2023/06/11 15:48:54;;;;;;;6.50;2.42;;;;;;;29.55;28.38;99881.13;5071990;28;20029;-59